FW0609 Weather Reports


Display with metric or nautical units.
time (UTC)temp
F
wind
direction
speed
MPH
gust
MPH
rain 1hr
in
rain 24hr
in
rain mn
in
humidity
%
barometer
mb
20200128150232 34 9 20.0 28.0 0.00 0.05 0.05 86 1017.4
20200128144748 34 350 22.0 32.0 0.00 0.05 0.05 87 1017.0
20200128143132 34 347 23.0 29.0 0.00 0.05 0.05 90 1016.8
20200128141651 34 349 22.0 32.0 0.00 0.05 0.05 93 1016.8
20200128140224 34 10 24.0 31.0 0.00 0.05 0.05 94 1016.6
20200128134638 33 11 25.0 34.0 0.01 0.05 0.05 95 1016.5
20200128133322 33 350 25.0 36.0 0.01 0.05 0.05 95 1016.4
20200128131552 33 18 21.0 33.0 0.01 0.05 0.05 95 1016.3
20200128130158 33 5 25.0 35.0 0.02 0.05 0.05 96 1015.9
20200128124637 33 360 21.0 30.0 0.02 0.04 0.04 96 1015.9
20200128123147 33 15 22.0 32.0 0.03 0.04 0.04 95 1015.8
20200128121605 33 11 22.0 32.0 0.04 0.04 0.04 95 1015.7
20200128120107 33 9 24.0 31.0 0.03 0.03 0.03 95 1015.5
20200128114618 33 355 22.0 31.0 0.02 0.02 0.02 95 1015.3
20200128113041 33 9 21.0 30.0 0.01 0.01 0.01 95 1015.2
20200128111604 33 360 22.0 31.0 0.00 0.00 0.00 95 1015.2
20200128110148 33 5 20.0 28.0 0.00 0.00 0.00 95 1014.9
20200128104623 33 18 19.0 27.0 0.00 0.00 0.00 95 1014.9
20200128103130 32 15 22.0 29.0 0.00 0.00 0.00 95 1014.8
20200128101538 32 5 21.0 28.0 0.00 0.00 0.00 95 1014.8
20200128100040 32 5 17.0 24.0 0.00 0.00 0.00 95 1014.8
20200128094559 31 5 17.0 22.0 0.00 0.00 0.00 95 1014.8
20200128090024 31 347 18.0 25.0 0.00 0.00 0.00 94 1014.7
20200128084538 31 360 17.0 22.0 0.00 0.00 0.00 94 1014.7
20200128083053 32 15 18.0 23.0 0.00 0.00 0.00 94 1014.5
20200128081601 32 5 18.0 25.0 0.00 0.00 0.00 94 1014.5
20200128080107 32 9 19.0 28.0 0.00 0.00 0.00 94 1014.5
20200128074513 32 5 18.0 25.0 0.00 0.00 0.00 93 1014.6
20200128073028 32 5 17.0 26.0 0.00 0.00 0.00 92 1014.6
20200128070324 33 9 18.0 28.0 0.00 0.00 0.00 89 1014.2
20200128064754 34 12 17.0 25.0 0.00 0.00 0.00 86 1014.1
20200128063301 36 14 21.0 30.0 0.00 0.00 0.00 82 1013.9
20200128061645 36 15 17.0 26.0 0.00 0.00 0.00 81 1013.7
20200128060139 36 11 18.0 25.0 0.00 0.00 0.00 80 1013.6
20200128054640 36 5 15.0 25.0 0.00 0.00 0.00 80 1013.2
20200128053215 36 11 19.0 27.0 0.00 0.00 0.00 79 1013.0
20200128051743 36 17 18.0 26.0 0.00 0.00 0.00 79 1012.9
20200128050132 37 15 20.0 27.0 0.00 0.00 0.00 78 1012.8
20200128044934 37 5 18.0 28.0 0.00 0.00 0.00 77 1012.9
20200128043057 38 19 18.0 26.0 0.00 0.00 0.00 76 1012.9
20200128041737 39 22 17.0 27.0 0.00 0.00 0.00 76 1012.7
20200128040103 39 20 18.0 28.0 0.00 0.00 0.00 75 1012.4
20200128034553 39 24 17.0 25.0 0.00 0.00 0.00 75 1012.4
20200128033146 40 23 16.0 23.0 0.00 0.00 0.00 73 1012.3
20200128031639 41 36 16.0 23.0 0.00 0.00 0.00 73 1012.1
20200128030121 41 31 17.0 25.0 0.00 0.00 0.00 72 1012.1
20200128024721 42 36 13.0 20.0 0.00 0.00 0.00 71 1012.0
20200128023137 42 41 15.0 20.0 0.00 0.00 0.00 70 1012.0
20200128021645 43 49 12.0 21.0 0.00 0.00 0.00 69 1011.4
20200128020125 44 50 12.0 22.0 0.00 0.00 0.00 66 1011.1
20200128014645 44 38 7.0 11.0 0.00 0.00 0.00 64 1010.9
20200128013113 44 40 7.0 10.0 0.00 0.00 0.00 63 1010.6
20200128011552 45 40 5.0 9.0 0.00 0.00 0.00 62 1010.5
20200128010111 45 41 5.0 11.0 0.00 0.00 0.00 61 1010.1
20200128004617 45 41 7.0 11.0 0.00 0.00 0.00 60 1010.0
20200128003153 46 55 5.0 7.0 0.00 0.00 0.00 57 1009.9
20200128001639 47 58 5.0 9.0 0.00 0.00 0.00 55 1009.6
20200128000109 48 58 4.0 7.0 0.00 0.00 0.00 53 1009.7
20200127234555 49 58 4.0 9.0 0.00 0.00 0.00 53 1009.4
20200127233055 50 58 4.0 9.0 0.00 0.00 0.00 51 1009.4
20200127231616 51 58 6.0 12.0 0.00 0.00 0.00 48 1009.3
20200127230057 52 63 10.0 15.0 0.00 0.00 0.00 46 1009.2
20200127224613 54 52 6.0 13.0 0.00 0.00 0.00 43 1009.1
20200127223103 55 57 6.0 14.0 0.00 0.00 0.00 42 1009.0
20200127221552 55 28 6.0 12.0 0.00 0.00 0.00 41 1009.0
20200127220112 56 33 10.0 15.0 0.00 0.00 0.00 39 1008.9
20200127214617 56 79 8.0 13.0 0.00 0.00 0.00 38 1008.9
20200127213036 56 57 5.0 14.0 0.00 0.00 0.00 38 1008.9
20200127211553 57 49 7.0 14.0 0.00 0.00 0.00 36 1008.9
20200127210047 56 57 7.0 12.0 0.00 0.00 0.00 36 1008.8
20200127204613 56 74 6.0 11.0 0.00 0.00 0.00 35 1009.0
20200127203110 56 53 8.0 14.0 0.00 0.00 0.00 36 1009.1
20200127201524 55 43 9.0 14.0 0.00 0.00 0.00 37 1009.0
20200127200019 55 40 9.0 17.0 0.00 0.00 0.00 38 1009.2
20200127194516 54 42 8.0 16.0 0.00 0.00 0.00 39 1009.6
20200127193028 54 59 8.0 16.0 0.00 0.00 0.00 39 1009.8
20200127190145 53 59 9.0 14.0 0.00 0.00 0.00 41 1010.8
20200127184720 52 49 9.0 14.0 0.00 0.00 0.00 41 1011.2
20200127183225 52 51 7.0 13.0 0.00 0.00 0.00 42 1011.3
20200127181645 51 32 10.0 15.0 0.00 0.00 0.00 42 1011.5
20200127180135 50 26 9.0 14.0 0.00 0.00 0.00 43 1011.8
20200127174823 50 24 9.0 13.0 0.00 0.00 0.00 43 1012.1
20200127173126 48 19 9.0 13.0 0.00 0.00 0.00 44 1012.2
20200127171637 47 14 9.0 13.0 0.00 0.00 0.00 47 1012.2
20200127170049 46 20 8.0 12.0 0.00 0.00 0.00 49 1012.3
20200127164620 45 27 7.0 12.0 0.00 0.00 0.00 51 1012.4
20200127163051 45 30 10.0 13.0 0.00 0.00 0.00 50 1012.4
20200127161557 44 11 8.0 11.0 0.00 0.00 0.00 56 1012.4
20200127160050 41 297 4.0 8.0 0.00 0.00 0.00 70 1012.7
20200127154529 38 286 5.0 8.0 0.00 0.00 0.00 76 1012.8
20200127153104 35 285 5.0 8.0 0.00 0.00 0.00 79 1012.8